Aviation Digital Data Service (ADDS)

Output produced by METARs form (1935 UTC 23 January 2019)
found at http://www.aviationweather.gov/metar/data/
 
METAR text: EDDG 231920Z 04004KT 020V080 9000 NSC M05/M08 Q1004 NOSIG
Conditions at: EDDG (MUENSTER/OSNABRU, DE) observed 1920 UTC 23 January 2019
Temperature: -5.0°C (23°F)
Dewpoint: -8.0°C (18°F) [RH = 79%]
Pressure (altimeter): 29.65 inches Hg (1004.0 mb)
Winds: from the NE (40 degrees) at 5 MPH (4 knots; 2.1 m/s)
Visibility: 6 miles ( 9 km)
Ceiling: at least 12,000 feet AGL
Clouds: sky clear below 12,000 feet AGL
Weather: no significant weather observed at this time

METAR text: EDDG 231850Z 05004KT 010V090 9000 NSC M05/M08 Q1004 NOSIG
Conditions at: EDDG (MUENSTER/OSNABRU, DE) observed 1850 UTC 23 January 2019
Temperature: -5.0°C (23°F)
Dewpoint: -8.0°C (18°F) [RH = 79%]
Pressure (altimeter): 29.65 inches Hg (1004.0 mb)
Winds: from the NE (50 degrees) at 5 MPH (4 knots; 2.1 m/s)
Visibility: 6 miles ( 9 km)
Ceiling: at least 12,000 feet AGL
Clouds: sky clear below 12,000 feet AGL
Weather: no significant weather observed at this time

METAR text: EDDG 231820Z 01004KT 9000 NSC M05/M08 Q1004 NOSIG
Conditions at: EDDG (MUENSTER/OSNABRU, DE) observed 1820 UTC 23 January 2019
Temperature: -5.0°C (23°F)
Dewpoint: -8.0°C (18°F) [RH = 79%]
Pressure (altimeter): 29.65 inches Hg (1004.0 mb)
Winds: from the N (10 degrees) at 5 MPH (4 knots; 2.1 m/s)
Visibility: 6 miles ( 9 km)
Ceiling: at least 12,000 feet AGL
Clouds: sky clear below 12,000 feet AGL
Weather: no significant weather observed at this time

METAR text: EDDG 231750Z VRB02KT 9000 FEW021 M04/M08 Q1003 NOSIG
Conditions at: EDDG (MUENSTER/OSNABRU, DE) observed 1750 UTC 23 January 2019
Temperature: -4.0°C (25°F)
Dewpoint: -8.0°C (18°F) [RH = 74%]
Pressure (altimeter): 29.62 inches Hg (1003.0 mb)
Winds: variable direction winds at 2 MPH (2 knots; 1.0 m/s)
Visibility: 6 miles ( 9 km)
Ceiling: at least 12,000 feet AGL
Clouds: few clouds at 2100 feet AGL
Weather: no significant weather observed at this time

METAR text: EDDG 231720Z 07003KT 360V130 9000 SCT021 M03/M07 Q1003 NOSIG
Conditions at: EDDG (MUENSTER/OSNABRU, DE) observed 1720 UTC 23 January 2019
Temperature: -3.0°C (27°F)
Dewpoint: -7.0°C (19°F) [RH = 74%]
Pressure (altimeter): 29.62 inches Hg (1003.0 mb)
Winds: from the ENE (70 degrees) at 3 MPH (3 knots; 1.5 m/s)
Visibility: 6 miles ( 9 km)
Ceiling: at least 12,000 feet AGL
Clouds: scattered clouds at 2100 feet AGL
Weather: no significant weather observed at this time

METAR text: EDDG 231650Z 08003KT 030V120 9000 BKN021 M03/M07 Q1003 NOSIG
Conditions at: EDDG (MUENSTER/OSNABRU, DE) observed 1650 UTC 23 January 2019
Temperature: -3.0°C (27°F)
Dewpoint: -7.0°C (19°F) [RH = 74%]
Pressure (altimeter): 29.62 inches Hg (1003.0 mb)
Winds: from the E (80 degrees) at 3 MPH (3 knots; 1.5 m/s)
Visibility: 6 miles ( 9 km)
Ceiling: 2100 feet AGL
Clouds: broken clouds at 2100 feet AGL
Weather: no significant weather observed at this time

METAR text: EDDG 231620Z 09003KT 040V130 9000 BKN021 M02/M07 Q1002 NOSIG
Conditions at: EDDG (MUENSTER/OSNABRU, DE) observed 1620 UTC 23 January 2019
Temperature: -2.0°C (28°F)
Dewpoint: -7.0°C (19°F) [RH = 69%]
Pressure (altimeter): 29.59 inches Hg (1002.0 mb)
Winds: from the E (90 degrees) at 3 MPH (3 knots; 1.5 m/s)
Visibility: 6 miles ( 9 km)
Ceiling: 2100 feet AGL
Clouds: broken clouds at 2100 feet AGL
Weather: no significant weather observed at this time

METAR text: EDDG 231550Z 09004KT 020V170 9000 BKN021 M02/M07 Q1002 NOSIG
Conditions at: EDDG (MUENSTER/OSNABRU, DE) observed 1550 UTC 23 January 2019
Temperature: -2.0°C (28°F)
Dewpoint: -7.0°C (19°F) [RH = 69%]
Pressure (altimeter): 29.59 inches Hg (1002.0 mb)
Winds: from the E (90 degrees) at 5 MPH (4 knots; 2.1 m/s)
Visibility: 6 miles ( 9 km)
Ceiling: 2100 feet AGL
Clouds: broken clouds at 2100 feet AGL
Weather: no significant weather observed at this time

METAR text: EDDG 231520Z 10003KT 050V160 9000 BKN022 M02/M07 Q1002 NOSIG
Conditions at: EDDG (MUENSTER/OSNABRU, DE) observed 1520 UTC 23 January 2019
Temperature: -2.0°C (28°F)
Dewpoint: -7.0°C (19°F) [RH = 69%]
Pressure (altimeter): 29.59 inches Hg (1002.0 mb)
Winds: from the E (100 degrees) at 3 MPH (3 knots; 1.5 m/s)
Visibility: 6 miles ( 9 km)
Ceiling: 2200 feet AGL
Clouds: broken clouds at 2200 feet AGL
Weather: no significant weather observed at this time

METAR text: EDDG 231450Z 09003KT 050V170 9000 BKN022 M02/M07 Q1001 NOSIG
Conditions at: EDDG (MUENSTER/OSNABRU, DE) observed 1450 UTC 23 January 2019
Temperature: -2.0°C (28°F)
Dewpoint: -7.0°C (19°F) [RH = 69%]
Pressure (altimeter): 29.56 inches Hg (1001.0 mb)
Winds: from the E (90 degrees) at 3 MPH (3 knots; 1.5 m/s)
Visibility: 6 miles ( 9 km)
Ceiling: 2200 feet AGL
Clouds: broken clouds at 2200 feet AGL
Weather: no significant weather observed at this time

METAR text: EDDG 231420Z 06004KT 350V120 9000 SCT022 M02/M07 Q1001 NOSIG
Conditions at: EDDG (MUENSTER/OSNABRU, DE) observed 1420 UTC 23 January 2019
Temperature: -2.0°C (28°F)
Dewpoint: -7.0°C (19°F) [RH = 69%]
Pressure (altimeter): 29.56 inches Hg (1001.0 mb)
Winds: from the ENE (60 degrees) at 5 MPH (4 knots; 2.1 m/s)
Visibility: 6 miles ( 9 km)
Ceiling: at least 12,000 feet AGL
Clouds: scattered clouds at 2200 feet AGL
Weather: no significant weather observed at this time

METAR text: EDDG 231350Z 06004KT 360V110 9000 SCT022 M01/M07 Q1001 NOSIG
Conditions at: EDDG (MUENSTER/OSNABRU, DE) observed 1350 UTC 23 January 2019
Temperature: -1.0°C (30°F)
Dewpoint: -7.0°C (19°F) [RH = 64%]
Pressure (altimeter): 29.56 inches Hg (1001.0 mb)
Winds: from the ENE (60 degrees) at 5 MPH (4 knots; 2.1 m/s)
Visibility: 6 miles ( 9 km)
Ceiling: at least 12,000 feet AGL
Clouds: scattered clouds at 2200 feet AGL
Weather: no significant weather observed at this time

METAR text: EDDG 231320Z 04006KT 360V080 9999 SCT022 M01/M06 Q1000 NOSIG
Conditions at: EDDG (MUENSTER/OSNABRU, DE) observed 1320 UTC 23 January 2019
Temperature: -1.0°C (30°F)
Dewpoint: -6.0°C (21°F) [RH = 69%]
Pressure (altimeter): 29.53 inches Hg (1000.0 mb)
Winds: from the NE (40 degrees) at 7 MPH (6 knots; 3.1 m/s)
Visibility: 6 or more miles (10+ km)
Ceiling: at least 12,000 feet AGL
Clouds: scattered clouds at 2200 feet AGL
Weather: no significant weather observed at this time

METAR text: EDDG 231250Z 05007KT 010V090 9999 SCT020 M01/M06 Q1000 NOSIG
Conditions at: EDDG (MUENSTER/OSNABRU, DE) observed 1250 UTC 23 January 2019
Temperature: -1.0°C (30°F)
Dewpoint: -6.0°C (21°F) [RH = 69%]
Pressure (altimeter): 29.53 inches Hg (1000.0 mb)
Winds: from the NE (50 degrees) at 8 MPH (7 knots; 3.6 m/s)
Visibility: 6 or more miles (10+ km)
Ceiling: at least 12,000 feet AGL
Clouds: scattered clouds at 2000 feet AGL
Weather: no significant weather observed at this time

METAR text: EDDG 231220Z 03005KT 010V070 9999 SCT019 M01/M06 Q1000 NOSIG
Conditions at: EDDG (MUENSTER/OSNABRU, DE) observed 1220 UTC 23 January 2019
Temperature: -1.0°C (30°F)
Dewpoint: -6.0°C (21°F) [RH = 69%]
Pressure (altimeter): 29.53 inches Hg (1000.0 mb)
Winds: from the NNE (30 degrees) at 6 MPH (5 knots; 2.6 m/s)
Visibility: 6 or more miles (10+ km)
Ceiling: at least 12,000 feet AGL
Clouds: scattered clouds at 1900 feet AGL
Weather: no significant weather observed at this time

METAR text: EDDG 231150Z 07004KT 010V150 9999 BKN019 M01/M05 Q1000 NOSIG
Conditions at: EDDG (MUENSTER/OSNABRU, DE) observed 1150 UTC 23 January 2019
Temperature: -1.0°C (30°F)
Dewpoint: -5.0°C (23°F) [RH = 74%]
Pressure (altimeter): 29.53 inches Hg (1000.0 mb)
Winds: from the ENE (70 degrees) at 5 MPH (4 knots; 2.1 m/s)
Visibility: 6 or more miles (10+ km)
Ceiling: 1900 feet AGL
Clouds: broken clouds at 1900 feet AGL
Weather: no significant weather observed at this time

METAR text: EDDG 231120Z 06004KT 350V120 9999 BKN020 M01/M06 Q1000 NOSIG
Conditions at: EDDG (MUENSTER/OSNABRU, DE) observed 1120 UTC 23 January 2019
Temperature: -1.0°C (30°F)
Dewpoint: -6.0°C (21°F) [RH = 69%]
Pressure (altimeter): 29.53 inches Hg (1000.0 mb)
Winds: from the ENE (60 degrees) at 5 MPH (4 knots; 2.1 m/s)
Visibility: 6 or more miles (10+ km)
Ceiling: 2000 feet AGL
Clouds: broken clouds at 2000 feet AGL
Weather: no significant weather observed at this time

METAR text: EDDG 231050Z 07004KT 010V140 9999 BKN020 M01/M06 Q1000 NOSIG
Conditions at: EDDG (MUENSTER/OSNABRU, DE) observed 1050 UTC 23 January 2019
Temperature: -1.0°C (30°F)
Dewpoint: -6.0°C (21°F) [RH = 69%]
Pressure (altimeter): 29.53 inches Hg (1000.0 mb)
Winds: from the ENE (70 degrees) at 5 MPH (4 knots; 2.1 m/s)
Visibility: 6 or more miles (10+ km)
Ceiling: 2000 feet AGL
Clouds: broken clouds at 2000 feet AGL
Weather: no significant weather observed at this time

METAR text: EDDG 231020Z VRB02KT 9000 BKN019 M01/M06 Q1000 NOSIG
Conditions at: EDDG (MUENSTER/OSNABRU, DE) observed 1020 UTC 23 January 2019
Temperature: -1.0°C (30°F)
Dewpoint: -6.0°C (21°F) [RH = 69%]
Pressure (altimeter): 29.53 inches Hg (1000.0 mb)
Winds: variable direction winds at 2 MPH (2 knots; 1.0 m/s)
Visibility: 6 miles ( 9 km)
Ceiling: 1900 feet AGL
Clouds: broken clouds at 1900 feet AGL
Weather: no significant weather observed at this time

METAR text: EDDG 230950Z 09003KT 010V150 9000 BKN019 M02/M06 Q1000 NOSIG
Conditions at: EDDG (MUENSTER/OSNABRU, DE) observed 0950 UTC 23 January 2019
Temperature: -2.0°C (28°F)
Dewpoint: -6.0°C (21°F) [RH = 74%]
Pressure (altimeter): 29.53 inches Hg (1000.0 mb)
Winds: from the E (90 degrees) at 3 MPH (3 knots; 1.5 m/s)
Visibility: 6 miles ( 9 km)
Ceiling: 1900 feet AGL
Clouds: broken clouds at 1900 feet AGL
Weather: no significant weather observed at this time

METAR text: EDDG 230920Z VRB03KT 9000 BKN020 M02/M06 Q1000 NOSIG
Conditions at: EDDG (MUENSTER/OSNABRU, DE) observed 0920 UTC 23 January 2019
Temperature: -2.0°C (28°F)
Dewpoint: -6.0°C (21°F) [RH = 74%]
Pressure (altimeter): 29.53 inches Hg (1000.0 mb)
Winds: variable direction winds at 3 MPH (3 knots; 1.5 m/s)
Visibility: 6 miles ( 9 km)
Ceiling: 2000 feet AGL
Clouds: broken clouds at 2000 feet AGL
Weather: no significant weather observed at this time

METAR text: EDDG 230850Z 09004KT 040V140 9999 BKN021 M03/M06 Q1000 NOSIG
Conditions at: EDDG (MUENSTER/OSNABRU, DE) observed 0850 UTC 23 January 2019
Temperature: -3.0°C (27°F)
Dewpoint: -6.0°C (21°F) [RH = 80%]
Pressure (altimeter): 29.53 inches Hg (1000.0 mb)
Winds: from the E (90 degrees) at 5 MPH (4 knots; 2.1 m/s)
Visibility: 6 or more miles (10+ km)
Ceiling: 2100 feet AGL
Clouds: broken clouds at 2100 feet AGL
Weather: no significant weather observed at this time

METAR text: EDDG 230820Z 08003KT 030V150 8000 BKN020 M03/M06 Q1000 NOSIG
Conditions at: EDDG (MUENSTER/OSNABRU, DE) observed 0820 UTC 23 January 2019
Temperature: -3.0°C (27°F)
Dewpoint: -6.0°C (21°F) [RH = 80%]
Pressure (altimeter): 29.53 inches Hg (1000.0 mb)
Winds: from the E (80 degrees) at 3 MPH (3 knots; 1.5 m/s)
Visibility: 5 miles ( 8 km)
Ceiling: 2000 feet AGL
Clouds: broken clouds at 2000 feet AGL
Weather: no significant weather observed at this time

METAR text: EDDG 230750Z 10003KT 020V170 8000 BKN021 M03/M06 Q1000 NOSIG
Conditions at: EDDG (MUENSTER/OSNABRU, DE) observed 0750 UTC 23 January 2019
Temperature: -3.0°C (27°F)
Dewpoint: -6.0°C (21°F) [RH = 80%]
Pressure (altimeter): 29.53 inches Hg (1000.0 mb)
Winds: from the E (100 degrees) at 3 MPH (3 knots; 1.5 m/s)
Visibility: 5 miles ( 8 km)
Ceiling: 2100 feet AGL
Clouds: broken clouds at 2100 feet AGL
Weather: no significant weather observed at this time

METAR text: EDDG 230720Z 09003KT 010V150 8000 BKN021 M03/M06 Q1000 NOSIG
Conditions at: EDDG (MUENSTER/OSNABRU, DE) observed 0720 UTC 23 January 2019
Temperature: -3.0°C (27°F)
Dewpoint: -6.0°C (21°F) [RH = 80%]
Pressure (altimeter): 29.53 inches Hg (1000.0 mb)
Winds: from the E (90 degrees) at 3 MPH (3 knots; 1.5 m/s)
Visibility: 5 miles ( 8 km)
Ceiling: 2100 feet AGL
Clouds: broken clouds at 2100 feet AGL
Weather: no significant weather observed at this time

METAR text: EDDG 230650Z 08003KT 030V170 9000 BKN022 M03/M06 Q0999 NOSIG
Conditions at: EDDG (MUENSTER/OSNABRU, DE) observed 0650 UTC 23 January 2019
Temperature: -3.0°C (27°F)
Dewpoint: -6.0°C (21°F) [RH = 80%]
Pressure (altimeter): 29.50 inches Hg (999.0 mb)
Winds: from the E (80 degrees) at 3 MPH (3 knots; 1.5 m/s)
Visibility: 6 miles ( 9 km)
Ceiling: 2200 feet AGL
Clouds: broken clouds at 2200 feet AGL
Weather: no significant weather observed at this time

METAR text: EDDG 230620Z VRB03KT 9000 BKN023 M03/M06 Q0999 NOSIG
Conditions at: EDDG (MUENSTER/OSNABRU, DE) observed 0620 UTC 23 January 2019
Temperature: -3.0°C (27°F)
Dewpoint: -6.0°C (21°F) [RH = 80%]
Pressure (altimeter): 29.50 inches Hg (999.0 mb)
Winds: variable direction winds at 3 MPH (3 knots; 1.5 m/s)
Visibility: 6 miles ( 9 km)
Ceiling: 2300 feet AGL
Clouds: broken clouds at 2300 feet AGL
Weather: no significant weather observed at this time

METAR text: EDDG 230550Z 12004KT 060V200 9000 -SN BKN020 M04/M06 Q0999 NOSIG
Conditions at: EDDG (MUENSTER/OSNABRU, DE) observed 0550 UTC 23 January 2019
Temperature: -4.0°C (25°F)
Dewpoint: -6.0°C (21°F) [RH = 86%]
Pressure (altimeter): 29.50 inches Hg (999.0 mb)
Winds: from the ESE (120 degrees) at 5 MPH (4 knots; 2.1 m/s)
Visibility: 6 miles ( 9 km)
Ceiling: 2000 feet AGL
Clouds: broken clouds at 2000 feet AGL
Weather: -SN  (light snow)

METAR text: EDDG 230520Z 12005KT 060V170 6000 -SN FEW019 BKN045 M04/M07 Q0999 NOSIG
Conditions at: EDDG (MUENSTER/OSNABRU, DE) observed 0520 UTC 23 January 2019
Temperature: -4.0°C (25°F)
Dewpoint: -7.0°C (19°F) [RH = 80%]
Pressure (altimeter): 29.50 inches Hg (999.0 mb)
Winds: from the ESE (120 degrees) at 6 MPH (5 knots; 2.6 m/s)
Visibility: 4 miles ( 6 km)
Ceiling: 4500 feet AGL
Clouds: few clouds at 1900 feet AGL
broken clouds at 4500 feet AGL
Weather: -SN  (light snow)

METAR text: EDDG 230450Z 11004KT 030V190 4500 -SN FEW013 BKN035 M04/M06 Q0999 NOSIG
Conditions at: EDDG (MUENSTER/OSNABRU, DE) observed 0450 UTC 23 January 2019
Temperature: -4.0°C (25°F)
Dewpoint: -6.0°C (21°F) [RH = 86%]
Pressure (altimeter): 29.50 inches Hg (999.0 mb)
Winds: from the ESE (110 degrees) at 5 MPH (4 knots; 2.1 m/s)
Visibility: 2.80 miles (4.51 km)
Ceiling: 3500 feet AGL
Clouds: few clouds at 1300 feet AGL
broken clouds at 3500 feet AGL
Weather: -SN  (light snow)

METAR text: EDDG 230420Z 12004KT 060V180 4000 -SN FEW013 BKN030 M04/M06 Q0999 NOSIG
Conditions at: EDDG (MUENSTER/OSNABRU, DE) observed 0420 UTC 23 January 2019
Temperature: -4.0°C (25°F)
Dewpoint: -6.0°C (21°F) [RH = 86%]
Pressure (altimeter): 29.50 inches Hg (999.0 mb)
Winds: from the ESE (120 degrees) at 5 MPH (4 knots; 2.1 m/s)
Visibility: 2.49 miles (4.01 km)
Ceiling: 3000 feet AGL
Clouds: few clouds at 1300 feet AGL
broken clouds at 3000 feet AGL
Weather: -SN  (light snow)

METAR text: EDDG 230350Z 11004KT 040V160 4000 -SN FEW015 BKN030 M04/M06 Q0999 NOSIG
Conditions at: EDDG (MUENSTER/OSNABRU, DE) observed 0350 UTC 23 January 2019
Temperature: -4.0°C (25°F)
Dewpoint: -6.0°C (21°F) [RH = 86%]
Pressure (altimeter): 29.50 inches Hg (999.0 mb)
Winds: from the ESE (110 degrees) at 5 MPH (4 knots; 2.1 m/s)
Visibility: 2.49 miles (4.01 km)
Ceiling: 3000 feet AGL
Clouds: few clouds at 1500 feet AGL
broken clouds at 3000 feet AGL
Weather: -SN  (light snow)

METAR text: EDDG 230320Z VRB04KT 2500 -SN SCT013 BKN022 M04/M05 Q0999 TEMPO 3500 BKN013
Conditions at: EDDG (MUENSTER/OSNABRU, DE) observed 0320 UTC 23 January 2019
Temperature: -4.0°C (25°F)
Dewpoint: -5.0°C (23°F) [RH = 93%]
Pressure (altimeter): 29.50 inches Hg (999.0 mb)
Winds: variable direction winds at 5 MPH (4 knots; 2.1 m/s)
Visibility: 1.55 miles (2.49 km)
Ceiling: 2200 feet AGL
Clouds: scattered clouds at 1300 feet AGL
broken clouds at 2200 feet AGL
Weather: -SN  (light snow)

METAR text: EDDG 230250Z 12004KT 060V150 3000 -SN FEW014 BKN022 M04/M05 Q1000 NOSIG
Conditions at: EDDG (MUENSTER/OSNABRU, DE) observed 0250 UTC 23 January 2019
Temperature: -4.0°C (25°F)
Dewpoint: -5.0°C (23°F) [RH = 93%]
Pressure (altimeter): 29.53 inches Hg (1000.0 mb)
Winds: from the ESE (120 degrees) at 5 MPH (4 knots; 2.1 m/s)
Visibility: 1.86 miles (2.99 km)
Ceiling: 2200 feet AGL
Clouds: few clouds at 1400 feet AGL
broken clouds at 2200 feet AGL
Weather: -SN  (light snow)

METAR text: EDDG 230220Z VRB05KT 3000 -SN BKN030 M04/M06 Q1000 NOSIG
Conditions at: EDDG (MUENSTER/OSNABRU, DE) observed 0220 UTC 23 January 2019
Temperature: -4.0°C (25°F)
Dewpoint: -6.0°C (21°F) [RH = 86%]
Pressure (altimeter): 29.53 inches Hg (1000.0 mb)
Winds: variable direction winds at 6 MPH (5 knots; 2.6 m/s)
Visibility: 1.86 miles (2.99 km)
Ceiling: 3000 feet AGL
Clouds: broken clouds at 3000 feet AGL
Weather: -SN  (light snow)

METAR text: EDDG 230150Z 12004KT 060V200 3000 -SN BKN035 M03/M05 Q1000 NOSIG
Conditions at: EDDG (MUENSTER/OSNABRU, DE) observed 0150 UTC 23 January 2019
Temperature: -3.0°C (27°F)
Dewpoint: -5.0°C (23°F) [RH = 86%]
Pressure (altimeter): 29.53 inches Hg (1000.0 mb)
Winds: from the ESE (120 degrees) at 5 MPH (4 knots; 2.1 m/s)
Visibility: 1.86 miles (2.99 km)
Ceiling: 3500 feet AGL
Clouds: broken clouds at 3500 feet AGL
Weather: -SN  (light snow)

METAR text: EDDG 230120Z 13005KT 060V210 3500 -SN FEW007 BKN037 M03/M05 Q1000 NOSIG
Conditions at: EDDG (MUENSTER/OSNABRU, DE) observed 0120 UTC 23 January 2019
Temperature: -3.0°C (27°F)
Dewpoint: -5.0°C (23°F) [RH = 86%]
Pressure (altimeter): 29.53 inches Hg (1000.0 mb)
Winds: from the SE (130 degrees) at 6 MPH (5 knots; 2.6 m/s)
Visibility: 2.17 miles (3.49 km)
Ceiling: 3700 feet AGL
Clouds: few clouds at 700 feet AGL
broken clouds at 3700 feet AGL
Weather: -SN  (light snow)

METAR text: EDDG 230050Z 13003KT 080V180 3500 -SN SCT020 BKN037 M03/M05 Q1000 NOSIG
Conditions at: EDDG (MUENSTER/OSNABRU, DE) observed 0050 UTC 23 January 2019
Temperature: -3.0°C (27°F)
Dewpoint: -5.0°C (23°F) [RH = 86%]
Pressure (altimeter): 29.53 inches Hg (1000.0 mb)
Winds: from the SE (130 degrees) at 3 MPH (3 knots; 1.5 m/s)
Visibility: 2.17 miles (3.49 km)
Ceiling: 3700 feet AGL
Clouds: scattered clouds at 2000 feet AGL
broken clouds at 3700 feet AGL
Weather: -SN  (light snow)

METAR text: EDDG 230020Z 13005KT 100V160 5000 -SN SCT018 BKN035 M03/M05 Q1000 NOSIG
Conditions at: EDDG (MUENSTER/OSNABRU, DE) observed 0020 UTC 23 January 2019
Temperature: -3.0°C (27°F)
Dewpoint: -5.0°C (23°F) [RH = 86%]
Pressure (altimeter): 29.53 inches Hg (1000.0 mb)
Winds: from the SE (130 degrees) at 6 MPH (5 knots; 2.6 m/s)
Visibility: 3 miles ( 5 km)
Ceiling: 3500 feet AGL
Clouds: scattered clouds at 1800 feet AGL
broken clouds at 3500 feet AGL
Weather: -SN  (light snow)

METAR text: EDDG 222350Z 14006KT 100V160 5000 -SN SCT015 BKN035 M02/M05 Q1001 NOSIG
Conditions at: EDDG (MUENSTER/OSNABRU, DE) observed 2350 UTC 22 January 2019
Temperature: -2.0°C (28°F)
Dewpoint: -5.0°C (23°F) [RH = 80%]
Pressure (altimeter): 29.56 inches Hg (1001.0 mb)
Winds: from the SE (140 degrees) at 7 MPH (6 knots; 3.1 m/s)
Visibility: 3 miles ( 5 km)
Ceiling: 3500 feet AGL
Clouds: scattered clouds at 1500 feet AGL
broken clouds at 3500 feet AGL
Weather: -SN  (light snow)

METAR text: EDDG 222320Z 15005KT 120V180 6000 -SN SCT018 BKN035 M02/M05 Q1001 NOSIG
Conditions at: EDDG (MUENSTER/OSNABRU, DE) observed 2320 UTC 22 January 2019
Temperature: -2.0°C (28°F)
Dewpoint: -5.0°C (23°F) [RH = 80%]
Pressure (altimeter): 29.56 inches Hg (1001.0 mb)
Winds: from the SSE (150 degrees) at 6 MPH (5 knots; 2.6 m/s)
Visibility: 4 miles ( 6 km)
Ceiling: 3500 feet AGL
Clouds: scattered clouds at 1800 feet AGL
broken clouds at 3500 feet AGL
Weather: -SN  (light snow)

METAR text: EDDG 222250Z 14006KT 7000 -SN SCT018 BKN035 M02/M05 Q1001 NOSIG
Conditions at: EDDG (MUENSTER/OSNABRU, DE) observed 2250 UTC 22 January 2019
Temperature: -2.0°C (28°F)
Dewpoint: -5.0°C (23°F) [RH = 80%]
Pressure (altimeter): 29.56 inches Hg (1001.0 mb)
Winds: from the SE (140 degrees) at 7 MPH (6 knots; 3.1 m/s)
Visibility: 4 miles ( 7 km)
Ceiling: 3500 feet AGL
Clouds: scattered clouds at 1800 feet AGL
broken clouds at 3500 feet AGL
Weather: -SN  (light snow)

METAR text: EDDG 222220Z 15007KT 6000 -SN FEW019 BKN035 M02/M06 Q1001 NOSIG
Conditions at: EDDG (MUENSTER/OSNABRU, DE) observed 2220 UTC 22 January 2019
Temperature: -2.0°C (28°F)
Dewpoint: -6.0°C (21°F) [RH = 74%]
Pressure (altimeter): 29.56 inches Hg (1001.0 mb)
Winds: from the SSE (150 degrees) at 8 MPH (7 knots; 3.6 m/s)
Visibility: 4 miles ( 6 km)
Ceiling: 3500 feet AGL
Clouds: few clouds at 1900 feet AGL
broken clouds at 3500 feet AGL
Weather: -SN  (light snow)

METAR text: EDDG 222150Z 15007KT 9999 -SN FEW027 BKN035 M02/M06 Q1001 NOSIG
Conditions at: EDDG (MUENSTER/OSNABRU, DE) observed 2150 UTC 22 January 2019
Temperature: -2.0°C (28°F)
Dewpoint: -6.0°C (21°F) [RH = 74%]
Pressure (altimeter): 29.56 inches Hg (1001.0 mb)
Winds: from the SSE (150 degrees) at 8 MPH (7 knots; 3.6 m/s)
Visibility: 6 or more miles (10+ km)
Ceiling: 3500 feet AGL
Clouds: few clouds at 2700 feet AGL
broken clouds at 3500 feet AGL
Weather: -SN  (light snow)

METAR text: EDDG 222120Z 16008KT 130V190 9999 -SN BKN035 M02/M06 Q1002 NOSIG
Conditions at: EDDG (MUENSTER/OSNABRU, DE) observed 2120 UTC 22 January 2019
Temperature: -2.0°C (28°F)
Dewpoint: -6.0°C (21°F) [RH = 74%]
Pressure (altimeter): 29.59 inches Hg (1002.0 mb)
Winds: from the SSE (160 degrees) at 9 MPH (8 knots; 4.1 m/s)
Visibility: 6 or more miles (10+ km)
Ceiling: 3500 feet AGL
Clouds: broken clouds at 3500 feet AGL
Weather: -SN  (light snow)

METAR text: EDDG 222050Z 16008KT 130V190 9999 -SN BKN034 M02/M07 Q1002 NOSIG
Conditions at: EDDG (MUENSTER/OSNABRU, DE) observed 2050 UTC 22 January 2019
Temperature: -2.0°C (28°F)
Dewpoint: -7.0°C (19°F) [RH = 69%]
Pressure (altimeter): 29.59 inches Hg (1002.0 mb)
Winds: from the SSE (160 degrees) at 9 MPH (8 knots; 4.1 m/s)
Visibility: 6 or more miles (10+ km)
Ceiling: 3400 feet AGL
Clouds: broken clouds at 3400 feet AGL
Weather: -SN  (light snow)

METAR text: EDDG 222020Z 16009KT 130V200 9999 -SN BKN031 M01/M07 Q1002 NOSIG
Conditions at: EDDG (MUENSTER/OSNABRU, DE) observed 2020 UTC 22 January 2019
Temperature: -1.0°C (30°F)
Dewpoint: -7.0°C (19°F) [RH = 64%]
Pressure (altimeter): 29.59 inches Hg (1002.0 mb)
Winds: from the SSE (160 degrees) at 10 MPH (9 knots; 4.6 m/s)
Visibility: 6 or more miles (10+ km)
Ceiling: 3100 feet AGL
Clouds: broken clouds at 3100 feet AGL
Weather: -SN  (light snow)

METAR text: EDDG 221950Z 16008KT 120V190 9999 -SN BKN031 M01/M07 Q1002 NOSIG
Conditions at: EDDG (MUENSTER/OSNABRU, DE) observed 1950 UTC 22 January 2019
Temperature: -1.0°C (30°F)
Dewpoint: -7.0°C (19°F) [RH = 64%]
Pressure (altimeter): 29.59 inches Hg (1002.0 mb)
Winds: from the SSE (160 degrees) at 9 MPH (8 knots; 4.1 m/s)
Visibility: 6 or more miles (10+ km)
Ceiling: 3100 feet AGL
Clouds: broken clouds at 3100 feet AGL
Weather: -SN  (light snow)

METAR text: EDDG 221920Z 16007KT 9999 BKN031 M01/M07 Q1002 NOSIG
Conditions at: EDDG (MUENSTER/OSNABRU, DE) observed 1920 UTC 22 January 2019
Temperature: -1.0°C (30°F)
Dewpoint: -7.0°C (19°F) [RH = 64%]
Pressure (altimeter): 29.59 inches Hg (1002.0 mb)
Winds: from the SSE (160 degrees) at 8 MPH (7 knots; 3.6 m/s)
Visibility: 6 or more miles (10+ km)
Ceiling: 3100 feet AGL
Clouds: broken clouds at 3100 feet AGL
Weather: no significant weather observed at this time

METAR text: EDDG 221850Z 16006KT 9999 BKN031 M00/M07 Q1002 NOSIG
Conditions at: EDDG (MUENSTER/OSNABRU, DE) observed 1850 UTC 22 January 2019
Temperature: 0.0°C (32°F)
Dewpoint: -7.0°C (19°F) [RH = 59%]
Pressure (altimeter): 29.59 inches Hg (1002.0 mb)
Winds: from the SSE (160 degrees) at 7 MPH (6 knots; 3.1 m/s)
Visibility: 6 or more miles (10+ km)
Ceiling: 3100 feet AGL
Clouds: broken clouds at 3100 feet AGL
Weather: no significant weather observed at this time

METAR text: EDDG 221820Z 19006KT 9999 BKN031 M00/M07 Q1002 NOSIG
Conditions at: EDDG (MUENSTER/OSNABRU, DE) observed 1820 UTC 22 January 2019
Temperature: 0.0°C (32°F)
Dewpoint: -7.0°C (19°F) [RH = 59%]
Pressure (altimeter): 29.59 inches Hg (1002.0 mb)
Winds: from the S (190 degrees) at 7 MPH (6 knots; 3.1 m/s)
Visibility: 6 or more miles (10+ km)
Ceiling: 3100 feet AGL
Clouds: broken clouds at 3100 feet AGL
Weather: no significant weather observed at this time

METAR text: EDDG 221750Z 19006KT 160V220 9999 BKN030 00/M07 Q1003 NOSIG
Conditions at: EDDG (MUENSTER/OSNABRU, DE) observed 1750 UTC 22 January 2019
Temperature: 0.0°C (32°F)
Dewpoint: -7.0°C (19°F) [RH = 59%]
Pressure (altimeter): 29.62 inches Hg (1003.0 mb)
Winds: from the S (190 degrees) at 7 MPH (6 knots; 3.1 m/s)
Visibility: 6 or more miles (10+ km)
Ceiling: 3000 feet AGL
Clouds: broken clouds at 3000 feet AGL
Weather: no significant weather observed at this time

METAR text: EDDG 221720Z 19007KT 160V220 9999 BKN030 00/M08 Q1003 NOSIG
Conditions at: EDDG (MUENSTER/OSNABRU, DE) observed 1720 UTC 22 January 2019
Temperature: 0.0°C (32°F)
Dewpoint: -8.0°C (18°F) [RH = 55%]
Pressure (altimeter): 29.62 inches Hg (1003.0 mb)
Winds: from the S (190 degrees) at 8 MPH (7 knots; 3.6 m/s)
Visibility: 6 or more miles (10+ km)
Ceiling: 3000 feet AGL
Clouds: broken clouds at 3000 feet AGL
Weather: no significant weather observed at this time

METAR text: EDDG 221650Z 17006KT 140V200 9999 BKN027 01/M07 Q1003 NOSIG
Conditions at: EDDG (MUENSTER/OSNABRU, DE) observed 1650 UTC 22 January 2019
Temperature: 1.0°C (34°F)
Dewpoint: -7.0°C (19°F) [RH = 55%]
Pressure (altimeter): 29.62 inches Hg (1003.0 mb)
Winds: from the S (170 degrees) at 7 MPH (6 knots; 3.1 m/s)
Visibility: 6 or more miles (10+ km)
Ceiling: 2700 feet AGL
Clouds: broken clouds at 2700 feet AGL
Weather: no significant weather observed at this time

METAR text: EDDG 221620Z 17007KT 140V200 9999 BKN025 01/M08 Q1003 NOSIG
Conditions at: EDDG (MUENSTER/OSNABRU, DE) observed 1620 UTC 22 January 2019
Temperature: 1.0°C (34°F)
Dewpoint: -8.0°C (18°F) [RH = 51%]
Pressure (altimeter): 29.62 inches Hg (1003.0 mb)
Winds: from the S (170 degrees) at 8 MPH (7 knots; 3.6 m/s)
Visibility: 6 or more miles (10+ km)
Ceiling: 2500 feet AGL
Clouds: broken clouds at 2500 feet AGL
Weather: no significant weather observed at this time

METAR text: EDDG 221550Z 17006KT 150V210 9999 BKN025 01/M08 Q1003 NOSIG
Conditions at: EDDG (MUENSTER/OSNABRU, DE) observed 1550 UTC 22 January 2019
Temperature: 1.0°C (34°F)
Dewpoint: -8.0°C (18°F) [RH = 51%]
Pressure (altimeter): 29.62 inches Hg (1003.0 mb)
Winds: from the S (170 degrees) at 7 MPH (6 knots; 3.1 m/s)
Visibility: 6 or more miles (10+ km)
Ceiling: 2500 feet AGL
Clouds: broken clouds at 2500 feet AGL
Weather: no significant weather observed at this time

METAR text: EDDG 221520Z 17005KT 150V210 9999 BKN025 01/M07 Q1003 NOSIG
Conditions at: EDDG (MUENSTER/OSNABRU, DE) observed 1520 UTC 22 January 2019
Temperature: 1.0°C (34°F)
Dewpoint: -7.0°C (19°F) [RH = 55%]
Pressure (altimeter): 29.62 inches Hg (1003.0 mb)
Winds: from the S (170 degrees) at 6 MPH (5 knots; 2.6 m/s)
Visibility: 6 or more miles (10+ km)
Ceiling: 2500 feet AGL
Clouds: broken clouds at 2500 feet AGL
Weather: no significant weather observed at this time

METAR text: EDDG 221450Z 17005KT CAVOK 02/M07 Q1003 NOSIG
Conditions at: EDDG (MUENSTER/OSNABRU, DE) observed 1450 UTC 22 January 2019
Temperature: 2.0°C (36°F)
Dewpoint: -7.0°C (19°F) [RH = 51%]
Pressure (altimeter): 29.62 inches Hg (1003.0 mb)
Winds: from the S (170 degrees) at 6 MPH (5 knots; 2.6 m/s)
Visibility: 6 or more miles (10+ km)
Ceiling: ceiling and visibility are OK
Clouds: unknown
Weather: no significant weather observed at this time

METAR text: EDDG 221420Z 16007KT 130V190 CAVOK 02/M07 Q1004 NOSIG
Conditions at: EDDG (MUENSTER/OSNABRU, DE) observed 1420 UTC 22 January 2019
Temperature: 2.0°C (36°F)
Dewpoint: -7.0°C (19°F) [RH = 51%]
Pressure (altimeter): 29.65 inches Hg (1004.0 mb)
Winds: from the SSE (160 degrees) at 8 MPH (7 knots; 3.6 m/s)
Visibility: 6 or more miles (10+ km)
Ceiling: ceiling and visibility are OK
Clouds: unknown
Weather: no significant weather observed at this time

METAR text: EDDG 221350Z 15008KT CAVOK 02/M07 Q1004 NOSIG
Conditions at: EDDG (MUENSTER/OSNABRU, DE) observed 1350 UTC 22 January 2019
Temperature: 2.0°C (36°F)
Dewpoint: -7.0°C (19°F) [RH = 51%]
Pressure (altimeter): 29.65 inches Hg (1004.0 mb)
Winds: from the SSE (150 degrees) at 9 MPH (8 knots; 4.1 m/s)
Visibility: 6 or more miles (10+ km)
Ceiling: ceiling and visibility are OK
Clouds: unknown
Weather: no significant weather observed at this time

METAR text: EDDG 221320Z 15008KT 120V180 CAVOK 02/M06 Q1004 NOSIG
Conditions at: EDDG (MUENSTER/OSNABRU, DE) observed 1320 UTC 22 January 2019
Temperature: 2.0°C (36°F)
Dewpoint: -6.0°C (21°F) [RH = 55%]
Pressure (altimeter): 29.65 inches Hg (1004.0 mb)
Winds: from the SSE (150 degrees) at 9 MPH (8 knots; 4.1 m/s)
Visibility: 6 or more miles (10+ km)
Ceiling: ceiling and visibility are OK
Clouds: unknown
Weather: no significant weather observed at this time

METAR text: EDDG 221250Z 14005KT CAVOK 01/M06 Q1005 NOSIG
Conditions at: EDDG (MUENSTER/OSNABRU, DE) observed 1250 UTC 22 January 2019
Temperature: 1.0°C (34°F)
Dewpoint: -6.0°C (21°F) [RH = 59%]
Pressure (altimeter): 29.68 inches Hg (1005.0 mb)
Winds: from the SE (140 degrees) at 6 MPH (5 knots; 2.6 m/s)
Visibility: 6 or more miles (10+ km)
Ceiling: ceiling and visibility are OK
Clouds: unknown
Weather: no significant weather observed at this time

METAR text: EDDG 221220Z 13006KT 100V160 CAVOK 00/M06 Q1005 NOSIG
Conditions at: EDDG (MUENSTER/OSNABRU, DE) observed 1220 UTC 22 January 2019
Temperature: 0.0°C (32°F)
Dewpoint: -6.0°C (21°F) [RH = 64%]
Pressure (altimeter): 29.68 inches Hg (1005.0 mb)
Winds: from the SE (130 degrees) at 7 MPH (6 knots; 3.1 m/s)
Visibility: 6 or more miles (10+ km)
Ceiling: ceiling and visibility are OK
Clouds: unknown
Weather: no significant weather observed at this time

METAR text: EDDG 221150Z 13007KT 100V160 CAVOK M01/M07 Q1006 NOSIG
Conditions at: EDDG (MUENSTER/OSNABRU, DE) observed 1150 UTC 22 January 2019
Temperature: -1.0°C (30°F)
Dewpoint: -7.0°C (19°F) [RH = 64%]
Pressure (altimeter): 29.70 inches Hg (1006.0 mb)
Winds: from the SE (130 degrees) at 8 MPH (7 knots; 3.6 m/s)
Visibility: 6 or more miles (10+ km)
Ceiling: ceiling and visibility are OK
Clouds: unknown
Weather: no significant weather observed at this time

METAR text: EDDG 221120Z 12007KT 070V210 CAVOK M01/M07 Q1006 NOSIG
Conditions at: EDDG (MUENSTER/OSNABRU, DE) observed 1120 UTC 22 January 2019
Temperature: -1.0°C (30°F)
Dewpoint: -7.0°C (19°F) [RH = 64%]
Pressure (altimeter): 29.70 inches Hg (1006.0 mb)
Winds: from the ESE (120 degrees) at 8 MPH (7 knots; 3.6 m/s)
Visibility: 6 or more miles (10+ km)
Ceiling: ceiling and visibility are OK
Clouds: unknown
Weather: no significant weather observed at this time

METAR text: EDDG 221050Z 13007KT 070V160 CAVOK M02/M07 Q1007 NOSIG
Conditions at: EDDG (MUENSTER/OSNABRU, DE) observed 1050 UTC 22 January 2019
Temperature: -2.0°C (28°F)
Dewpoint: -7.0°C (19°F) [RH = 69%]
Pressure (altimeter): 29.73 inches Hg (1007.0 mb)
Winds: from the SE (130 degrees) at 8 MPH (7 knots; 3.6 m/s)
Visibility: 6 or more miles (10+ km)
Ceiling: ceiling and visibility are OK
Clouds: unknown
Weather: no significant weather observed at this time

METAR text: EDDG 221020Z 13006KT 090V150 CAVOK M03/M07 Q1008 NOSIG
Conditions at: EDDG (MUENSTER/OSNABRU, DE) observed 1020 UTC 22 January 2019
Temperature: -3.0°C (27°F)
Dewpoint: -7.0°C (19°F) [RH = 74%]
Pressure (altimeter): 29.76 inches Hg (1008.0 mb)
Winds: from the SE (130 degrees) at 7 MPH (6 knots; 3.1 m/s)
Visibility: 6 or more miles (10+ km)
Ceiling: ceiling and visibility are OK
Clouds: unknown
Weather: no significant weather observed at this time

METAR text: EDDG 220950Z 13006KT 080V170 CAVOK M04/M08 Q1008 NOSIG
Conditions at: EDDG (MUENSTER/OSNABRU, DE) observed 0950 UTC 22 January 2019
Temperature: -4.0°C (25°F)
Dewpoint: -8.0°C (18°F) [RH = 74%]
Pressure (altimeter): 29.76 inches Hg (1008.0 mb)
Winds: from the SE (130 degrees) at 7 MPH (6 knots; 3.1 m/s)
Visibility: 6 or more miles (10+ km)
Ceiling: ceiling and visibility are OK
Clouds: unknown
Weather: no significant weather observed at this time

METAR text: EDDG 220920Z 12006KT 080V170 CAVOK M04/M08 Q1008 NOSIG
Conditions at: EDDG (MUENSTER/OSNABRU, DE) observed 0920 UTC 22 January 2019
Temperature: -4.0°C (25°F)
Dewpoint: -8.0°C (18°F) [RH = 74%]
Pressure (altimeter): 29.76 inches Hg (1008.0 mb)
Winds: from the ESE (120 degrees) at 7 MPH (6 knots; 3.1 m/s)
Visibility: 6 or more miles (10+ km)
Ceiling: ceiling and visibility are OK
Clouds: unknown
Weather: no significant weather observed at this time

METAR text: EDDG 220850Z 13004KT 070V170 CAVOK M05/M09 Q1009 BECMG 14009KT
Conditions at: EDDG (MUENSTER/OSNABRU, DE) observed 0850 UTC 22 January 2019
Temperature: -5.0°C (23°F)
Dewpoint: -9.0°C (16°F) [RH = 73%]
Pressure (altimeter): 29.79 inches Hg (1009.0 mb)
Winds: from the SE (130 degrees) at 5 MPH (4 knots; 2.1 m/s)
Visibility: 6 or more miles (10+ km)
Ceiling: ceiling and visibility are OK
Clouds: unknown
Weather: no significant weather observed at this time

METAR text: EDDG 220820Z 13004KT 060V170 CAVOK M06/M09 Q1009 BECMG 14009KT
Conditions at: EDDG (MUENSTER/OSNABRU, DE) observed 0820 UTC 22 January 2019
Temperature: -6.0°C (21°F)
Dewpoint: -9.0°C (16°F) [RH = 79%]
Pressure (altimeter): 29.79 inches Hg (1009.0 mb)
Winds: from the SE (130 degrees) at 5 MPH (4 knots; 2.1 m/s)
Visibility: 6 or more miles (10+ km)
Ceiling: ceiling and visibility are OK
Clouds: unknown
Weather: no significant weather observed at this time

METAR text: EDDG 220750Z 12003KT 060V210 CAVOK M07/M09 Q1010 BECMG 14009KT
Conditions at: EDDG (MUENSTER/OSNABRU, DE) observed 0750 UTC 22 January 2019
Temperature: -7.0°C (19°F)
Dewpoint: -9.0°C (16°F) [RH = 86%]
Pressure (altimeter): 29.82 inches Hg (1010.0 mb)
Winds: from the ESE (120 degrees) at 3 MPH (3 knots; 1.5 m/s)
Visibility: 6 or more miles (10+ km)
Ceiling: ceiling and visibility are OK
Clouds: unknown
Weather: no significant weather observed at this time

Forecast for: EDDG (MUENSTER/OSNABRU, DE)
Text: TAF EDDG 231700Z 2318/2418 VRB03KT 9999 BKN020
Forecast period: 1800 UTC 23 January 2019 to 1800 UTC 24 January 2019
Forecast type: FROM: standard forecast or significant change
Winds: variable direction winds at 3 MPH (3 knots; 1.5 m/s)
Visibility: 6 or more miles 10+ km)
Ceiling: 2000 feet AGL
Clouds: broken clouds at 2000 feet AGL
Weather: no significant weather forecast for this period
Text: TEMPO 2402/2410 4000 BR BKN010
Forecast period: 0200 to 1000 UTC 24 January 2019
Forecast type: TEMPORARY: The following changes expected for less than half the time period
Visibility: 2.49 miles (4.01 km)
Ceiling: 1000 feet AGL
Clouds: broken clouds at 1000 feet AGL
Weather: BR  (mist)